Impacts TAF Board
For situational awareness. Not to be used for flight planning purposes.
IDs:

KPBI - Palm Beach Intl, FL, US

Issued at 2048 UTC 30 Jun 2022
Updated at 2316 UTC 30 Jun 2022
Potential Impact None Slight Moderate High
Time2253Z 01/00Z 01/01Z 01/02Z 01/03Z 01/04Z 01/05Z 01/06Z 01/07Z 01/08Z 01/09Z 01/10Z 01/11Z 01/12Z>>
Type OBS PRVL PRVL PRVL PRVL PRVL PRVL PRVL PRVL PRVL PRVL PRVL PRVL PRVL
VIS 10 >6 >6 >6 >6 >6 >6 >6 >6 >6 >6 >6 >6 >6
CIG 33 -- -- -- -- -- -- -- -- -- -- -- -- --
Cover BKN SCT SCT SCT SCT SCT SCT SCT SCT SCT SCT SCT SCT SCT
FltCat VFR VFR VFR VFR VFR VFR VFR VFR VFR VFR VFR VFR VFR VFR
WX -TSRA -- -- -- -- -- -- -- -- -- -- -- -- --
WDir 220 100 100 100 100 100 100 VRB VRB VRB VRB VRB VRB VRB
WSpd 3 7 7 7 7 7 7 4 4 4 4 4 4 4
WGst -- -- -- -- -- -- -- -- -- -- -- -- -- --
WSHgt -- -- -- -- -- -- -- -- -- -- -- -- -- --
WSDir -- -- -- -- -- -- -- -- -- -- -- -- -- --
WSSpd -- -- -- -- -- -- -- -- -- -- -- -- -- --
Raw TAF
KPBI 302048Z 3021/0118 11012KT P6SM VCTS SCT030CB BKN050
  FM302300 10007KT P6SM SCT030 SCT250
  FM010600 VRB04KT P6SM FEW025 SCT250
  FM011400 12009KT P6SM VCSH SCT030 SCT250


Raw METAR
KPBI 302253Z 22003KT 10SM -TSRA SCT023CB BKN033 BKN110 27/23 A3010 RMK AO2 WSHFT 2229 LTG DSNT W AND NW RAB40 TSB08 SLP193 OCNL LTGICCG SW-N TS SW-N MOV N P0006 T02670233 $
KPBI 302243Z 24010G25KT 10SM R10L/2400VP6000FT +TSRA SCT023CB BKN031 BKN250 27/23 A3010 RMK AO2 WSHFT 2229 LTG DSNT SW-NW RAB40 TSB08 OCNL LTGICCG S-N TS S-N MOV N P0000 T02670233 $
KPBI 302209Z 10012KT 10SM TS SCT028CB BKN050 BKN250 30/24 A3009 RMK AO2 LTG DSNT W-N TSB08 OCNL LTGICCG S-N TS S-N MOV N T03000239 $
KPBI 302153Z 09011KT 10SM SCT026CB BKN035 BKN250 30/22 A3009 RMK AO2 TSE49 SLP189 CB NW-NE MOV N T03000222 $
KPBI 302150Z 11011KT 10SM SCT026CB BKN035 BKN250 30/22 A3009 RMK AO2 TSE49 CB NW-NE MOV N $
KPBI 302053Z 12014G20KT 10SM TS SCT026CB BKN034 BKN250 31/23 A3009 RMK AO2 LTG DSNT SW TSE1957B44 SLP188 OCNL LTGICCG SW-NW TS SW-NW MOV N TCU DSNT NE-E T03060233 56010
KPBI 302045Z 12012G20KT 10SM TS SCT026CB BKN034 BKN250 31/24 A3009 RMK AO2 TSE1957B44 OCNL LTGICCG SW-NW TS SW-NW MOV N TCU DSNT NE-E T03110239

METAR Board
Radar Display
Forecast Discussion
For situational awareness. Not to be used for flight planning purposes.